sensor_id;sensor_type;location;lat;lon;timestamp;pressure;altitude;pressure_sealevel;temperature;humidity
55077;BME280;40971;44.702;11.030;2022-07-30T00:01:26;101191.03;;;21.65;100.00
55077;BME280;40971;44.702;11.030;2022-07-30T00:03:52;101131.53;;;21.28;100.00
55077;BME280;40971;44.702;11.030;2022-07-30T00:06:17;101177.25;;;21.51;100.00
55077;BME280;40971;44.702;11.030;2022-07-30T00:08:45;101127.06;;;21.19;100.00
55077;BME280;40971;44.702;11.030;2022-07-30T00:11:10;101133.50;;;21.17;100.00
55077;BME280;40971;44.702;11.030;2022-07-30T00:13:36;101164.94;;;21.50;100.00
55077;BME280;40971;44.702;11.030;2022-07-30T00:16:02;101187.16;;;21.69;100.00
55077;BME280;40971;44.702;11.030;2022-07-30T00:18:27;101160.28;;;21.62;100.00
55077;BME280;40971;44.702;11.030;2022-07-30T00:20:52;101156.56;;;21.36;100.00
55077;BME280;40971;44.702;11.030;2022-07-30T00:23:18;101167.72;;;21.20;100.00
55077;BME280;40971;44.702;11.030;2022-07-30T00:25:43;101169.56;;;21.19;100.00
55077;BME280;40971;44.702;11.030;2022-07-30T00:28:09;101177.53;;;21.19;100.00
55077;BME280;40971;44.702;11.030;2022-07-30T00:30:34;101189.38;;;21.15;100.00
55077;BME280;40971;44.702;11.030;2022-07-30T00:33:01;101188.25;;;20.98;100.00
55077;BME280;40971;44.702;11.030;2022-07-30T00:35:26;101169.53;;;20.90;100.00
55077;BME280;40971;44.702;11.030;2022-07-30T00:37:52;101179.06;;;21.02;100.00
55077;BME280;40971;44.702;11.030;2022-07-30T00:40:17;101139.06;;;20.75;100.00
55077;BME280;40971;44.702;11.030;2022-07-30T00:42:45;101169.25;;;20.93;100.00
55077;BME280;40971;44.702;11.030;2022-07-30T00:45:13;101180.59;;;21.05;100.00
55077;BME280;40971;44.702;11.030;2022-07-30T00:47:39;101178.63;;;21.07;100.00
55077;BME280;40971;44.702;11.030;2022-07-30T00:50:10;101151.91;;;20.99;100.00
55077;BME280;40971;44.702;11.030;2022-07-30T00:52:37;101174.72;;;21.21;100.00
55077;BME280;40971;44.702;11.030;2022-07-30T00:55:03;101106.63;;;20.81;100.00
55077;BME280;40971;44.702;11.030;2022-07-30T00:57:29;101179.06;;;21.22;100.00
55077;BME280;40971;44.702;11.030;2022-07-30T00:59:54;101179.44;;;20.98;100.00
55077;BME280;40971;44.702;11.030;2022-07-30T01:02:20;101181.97;;;20.90;100.00
55077;BME280;40971;44.702;11.030;2022-07-30T01:04:46;101097.22;;;20.38;100.00
55077;BME280;40971;44.702;11.030;2022-07-30T01:07:12;101152.63;;;20.72;100.00
55077;BME280;40971;44.702;11.030;2022-07-30T01:09:37;101161.28;;;20.93;100.00
55077;BME280;40971;44.702;11.030;2022-07-30T01:12:04;101170.22;;;21.12;100.00
55077;BME280;40971;44.702;11.030;2022-07-30T01:14:34;101161.84;;;21.07;100.00
55077;BME280;40971;44.702;11.030;2022-07-30T01:17:01;101153.31;;;20.93;100.00
55077;BME280;40971;44.702;11.030;2022-07-30T01:19:30;101167.84;;;20.80;100.00
55077;BME280;40971;44.702;11.030;2022-07-30T01:22:46;101169.94;;;20.76;100.00
55077;BME280;40971;44.702;11.030;2022-07-30T01:28:13;101163.38;;;20.90;100.00
55077;BME280;40971;44.702;11.030;2022-07-30T01:30:42;101142.28;;;20.98;100.00
55077;BME280;40971;44.702;11.030;2022-07-30T01:33:12;101164.69;;;21.24;100.00
55077;BME280;40971;44.702;11.030;2022-07-30T01:35:39;101111.38;;;20.97;100.00
55077;BME280;40971;44.702;11.030;2022-07-30T01:38:06;101171.53;;;21.27;100.00
55077;BME280;40971;44.702;11.030;2022-07-30T01:40:35;101095.19;;;20.90;100.00
55077;BME280;40971;44.702;11.030;2022-07-30T01:43:02;101160.06;;;21.36;100.00
55077;BME280;40971;44.702;11.030;2022-07-30T01:45:29;101139.06;;;21.23;100.00
55077;BME280;40971;44.702;11.030;2022-07-30T01:47:58;101101.47;;;20.99;100.00
55077;BME280;40971;44.702;11.030;2022-07-30T01:50:25;101159.59;;;20.92;100.00
55077;BME280;40971;44.702;11.030;2022-07-30T01:52:53;101149.69;;;20.85;100.00
55077;BME280;40971;44.702;11.030;2022-07-30T01:55:39;101158.22;;;20.88;100.00
55077;BME280;40971;44.702;11.030;2022-07-30T01:58:05;101121.88;;;20.69;100.00
55077;BME280;40971;44.702;11.030;2022-07-30T02:00:33;101156.81;;;20.94;100.00
55077;BME280;40971;44.702;11.030;2022-07-30T02:03:01;101165.22;;;20.89;100.00
55077;BME280;40971;44.702;11.030;2022-07-30T02:05:30;101149.00;;;20.83;100.00
55077;BME280;40971;44.702;11.030;2022-07-30T02:08:06;101142.81;;;20.82;100.00
55077;BME280;40971;44.702;11.030;2022-07-30T02:10:59;101146.34;;;20.83;100.00
55077;BME280;40971;44.702;11.030;2022-07-30T02:13:52;101134.88;;;20.72;100.00
55077;BME280;40971;44.702;11.030;2022-07-30T02:16:30;101140.34;;;21.00;100.00
55077;BME280;40971;44.702;11.030;2022-07-30T02:19:07;101134.03;;;21.11;100.00
55077;BME280;40971;44.702;11.030;2022-07-30T02:21:40;101098.84;;;20.89;100.00
55077;BME280;40971;44.702;11.030;2022-07-30T02:24:11;101139.78;;;21.06;100.00
55077;BME280;40971;44.702;11.030;2022-07-30T02:26:37;101135.44;;;20.86;100.00
55077;BME280;40971;44.702;11.030;2022-07-30T02:29:05;101131.94;;;20.85;100.00
55077;BME280;40971;44.702;11.030;2022-07-30T02:31:31;101130.97;;;20.86;100.00
55077;BME280;40971;44.702;11.030;2022-07-30T02:34:00;101108.75;;;20.78;100.00
55077;BME280;40971;44.702;11.030;2022-07-30T02:36:28;101129.44;;;20.93;100.00
55077;BME280;40971;44.702;11.030;2022-07-30T02:38:55;101087.53;;;20.68;100.00
55077;BME280;40971;44.702;11.030;2022-07-30T02:41:24;101130.81;;;20.97;100.00
55077;BME280;40971;44.702;11.030;2022-07-30T02:43:51;101114.34;;;20.84;100.00
55077;BME280;40971;44.702;11.030;2022-07-30T02:46:17;101075.91;;;20.59;100.00
55077;BME280;40971;44.702;11.030;2022-07-30T02:48:45;101119.22;;;20.79;100.00
55077;BME280;40971;44.702;11.030;2022-07-30T02:51:15;101076.47;;;20.53;100.00
55077;BME280;40971;44.702;11.030;2022-07-30T02:53:44;101112.38;;;20.67;100.00
55077;BME280;40971;44.702;11.030;2022-07-30T02:56:11;101089.59;;;20.55;100.00
55077;BME280;40971;44.702;11.030;2022-07-30T02:58:38;101123.41;;;20.72;100.00
55077;BME280;40971;44.702;11.030;2022-07-30T03:01:05;101098.81;;;20.51;100.00
55077;BME280;40971;44.702;11.030;2022-07-30T03:03:31;101059.50;;;20.16;100.00
55077;BME280;40971;44.702;11.030;2022-07-30T03:05:58;101135.69;;;20.54;100.00
55077;BME280;40971;44.702;11.030;2022-07-30T03:08:25;101069.09;;;20.07;100.00
55077;BME280;40971;44.702;11.030;2022-07-30T03:10:54;101058.34;;;19.99;100.00
55077;BME280;40971;44.702;11.030;2022-07-30T03:13:21;101124.88;;;20.36;100.00
55077;BME280;40971;44.702;11.030;2022-07-30T03:15:50;101114.28;;;20.46;100.00
55077;BME280;40971;44.702;11.030;2022-07-30T03:18:17;101139.72;;;20.58;100.00
55077;BME280;40971;44.702;11.030;2022-07-30T03:20:49;101139.00;;;20.46;100.00
55077;BME280;40971;44.702;11.030;2022-07-30T03:23:17;101145.16;;;20.47;100.00
55077;BME280;40971;44.702;11.030;2022-07-30T03:25:47;101132.31;;;20.42;100.00
55077;BME280;40971;44.702;11.030;2022-07-30T03:28:15;101134.31;;;20.19;100.00
55077;BME280;40971;44.702;11.030;2022-07-30T03:30:41;101086.44;;;19.80;100.00
55077;BME280;40971;44.702;11.030;2022-07-30T03:33:10;101150.97;;;19.70;100.00
55077;BME280;40971;44.702;11.030;2022-07-30T03:35:37;101156.97;;;19.51;100.00
55077;BME280;40971;44.702;11.030;2022-07-30T03:38:04;101137.63;;;19.39;100.00
55077;BME280;40971;44.702;11.030;2022-07-30T03:40:30;101138.63;;;19.59;100.00
55077;BME280;40971;44.702;11.030;2022-07-30T03:42:56;101140.41;;;19.79;100.00
55077;BME280;40971;44.702;11.030;2022-07-30T03:45:23;101119.06;;;19.81;100.00
55077;BME280;40971;44.702;11.030;2022-07-30T03:47:49;101115.50;;;19.92;100.00
55077;BME280;40971;44.702;11.030;2022-07-30T03:50:16;101162.94;;;20.25;100.00
55077;BME280;40971;44.702;11.030;2022-07-30T03:52:42;101169.06;;;20.26;100.00
55077;BME280;40971;44.702;11.030;2022-07-30T03:55:09;101137.19;;;20.06;100.00
55077;BME280;40971;44.702;11.030;2022-07-30T03:57:35;101174.81;;;20.31;100.00
55077;BME280;40971;44.702;11.030;2022-07-30T04:00:06;101173.84;;;20.32;100.00
55077;BME280;40971;44.702;11.030;2022-07-30T04:02:42;101178.06;;;20.34;100.00
55077;BME280;40971;44.702;11.030;2022-07-30T04:05:08;101175.34;;;20.25;100.00
55077;BME280;40971;44.702;11.030;2022-07-30T04:07:34;101154.97;;;20.16;100.00
55077;BME280;40971;44.702;11.030;2022-07-30T04:09:59;101118.72;;;19.95;100.00
55077;BME280;40971;44.702;11.030;2022-07-30T04:12:24;101173.13;;;20.30;100.00
55077;BME280;40971;44.702;11.030;2022-07-30T04:14:50;101183.41;;;20.44;100.00
55077;BME280;40971;44.702;11.030;2022-07-30T04:17:21;101168.19;;;20.46;100.00
55077;BME280;40971;44.702;11.030;2022-07-30T04:19:51;101171.69;;;20.47;100.00
55077;BME280;40971;44.702;11.030;2022-07-30T04:22:22;101167.75;;;20.41;100.00
55077;BME280;40971;44.702;11.030;2022-07-30T04:24:49;101198.81;;;20.50;100.00
55077;BME280;40971;44.702;11.030;2022-07-30T04:27:16;101172.34;;;20.39;100.00
55077;BME280;40971;44.702;11.030;2022-07-30T04:29:43;101210.50;;;20.48;100.00
55077;BME280;40971;44.702;11.030;2022-07-30T04:32:08;101154.63;;;20.09;100.00
55077;BME280;40971;44.702;11.030;2022-07-30T04:34:34;101211.75;;;20.43;100.00
55077;BME280;40971;44.702;11.030;2022-07-30T04:37:00;101216.03;;;20.35;100.00
55077;BME280;40971;44.702;11.030;2022-07-30T04:39:32;101151.50;;;19.94;100.00
55077;BME280;40971;44.702;11.030;2022-07-30T04:41:57;101208.72;;;20.27;100.00
55077;BME280;40971;44.702;11.030;2022-07-30T04:44:22;101206.78;;;20.29;100.00
55077;BME280;40971;44.702;11.030;2022-07-30T04:46:48;101212.31;;;20.47;100.00
55077;BME280;40971;44.702;11.030;2022-07-30T04:49:15;101216.25;;;20.53;100.00
55077;BME280;40971;44.702;11.030;2022-07-30T04:51:42;101226.03;;;20.52;100.00
55077;BME280;40971;44.702;11.030;2022-07-30T04:54:10;101227.25;;;20.48;100.00
55077;BME280;40971;44.702;11.030;2022-07-30T04:56:38;101232.13;;;20.43;100.00
55077;BME280;40971;44.702;11.030;2022-07-30T04:59:04;101215.06;;;20.36;100.00
55077;BME280;40971;44.702;11.030;2022-07-30T05:01:34;101222.88;;;20.37;100.00
55077;BME280;40971;44.702;11.030;2022-07-30T05:04:00;101217.44;;;20.39;100.00
55077;BME280;40971;44.702;11.030;2022-07-30T05:06:27;101224.03;;;20.45;100.00
55077;BME280;40971;44.702;11.030;2022-07-30T05:08:53;101227.81;;;20.42;100.00
55077;BME280;40971;44.702;11.030;2022-07-30T05:11:19;101217.25;;;20.31;100.00
55077;BME280;40971;44.702;11.030;2022-07-30T05:13:46;101201.47;;;20.29;100.00
55077;BME280;40971;44.702;11.030;2022-07-30T05:16:13;101222.41;;;20.63;100.00
55077;BME280;40971;44.702;11.030;2022-07-30T05:18:38;101203.84;;;20.63;100.00
55077;BME280;40971;44.702;11.030;2022-07-30T05:21:04;101194.19;;;20.52;100.00
55077;BME280;40971;44.702;11.030;2022-07-30T05:23:31;101238.94;;;20.66;100.00
55077;BME280;40971;44.702;11.030;2022-07-30T05:25:57;101224.09;;;20.64;100.00
55077;BME280;40971;44.702;11.030;2022-07-30T05:28:22;101228.47;;;20.75;100.00
55077;BME280;40971;44.702;11.030;2022-07-30T05:30:53;101226.09;;;20.81;100.00
55077;BME280;40971;44.702;11.030;2022-07-30T05:33:20;101212.44;;;20.86;100.00
55077;BME280;40971;44.702;11.030;2022-07-30T05:35:46;101180.00;;;20.72;100.00
55077;BME280;40971;44.702;11.030;2022-07-30T05:38:12;101208.53;;;20.90;100.00
55077;BME280;40971;44.702;11.030;2022-07-30T05:40:37;101226.16;;;21.00;100.00
55077;BME280;40971;44.702;11.030;2022-07-30T05:43:03;101223.78;;;21.07;100.00
55077;BME280;40971;44.702;11.030;2022-07-30T05:45:29;101224.38;;;21.30;100.00
55077;BME280;40971;44.702;11.030;2022-07-30T05:47:55;101202.00;;;21.42;100.00
55077;BME280;40971;44.702;11.030;2022-07-30T05:50:20;101224.38;;;21.69;100.00
55077;BME280;40971;44.702;11.030;2022-07-30T05:52:46;101230.38;;;21.61;100.00
55077;BME280;40971;44.702;11.030;2022-07-30T05:55:11;101205.63;;;21.41;100.00
55077;BME280;40971;44.702;11.030;2022-07-30T05:57:37;101220.75;;;21.41;100.00
55077;BME280;40971;44.702;11.030;2022-07-30T06:00:04;101221.59;;;21.41;100.00
55077;BME280;40971;44.702;11.030;2022-07-30T06:02:30;101213.03;;;21.47;100.00
55077;BME280;40971;44.702;11.030;2022-07-30T06:04:55;101222.97;;;21.55;100.00
55077;BME280;40971;44.702;11.030;2022-07-30T06:07:21;101230.22;;;21.62;100.00
55077;BME280;40971;44.702;11.030;2022-07-30T06:09:46;101226.72;;;21.62;100.00
55077;BME280;40971;44.702;11.030;2022-07-30T06:12:12;101218.06;;;21.70;100.00
55077;BME280;40971;44.702;11.030;2022-07-30T06:14:37;101190.06;;;21.66;100.00
55077;BME280;40971;44.702;11.030;2022-07-30T06:17:03;101183.44;;;21.89;100.00
55077;BME280;40971;44.702;11.030;2022-07-30T06:19:28;101173.06;;;21.96;100.00
55077;BME280;40971;44.702;11.030;2022-07-30T06:21:58;101205.06;;;22.23;100.00
55077;BME280;40971;44.702;11.030;2022-07-30T06:24:25;101204.06;;;22.24;100.00
55077;BME280;40971;44.702;11.030;2022-07-30T06:26:53;101228.94;;;22.33;100.00
55077;BME280;40971;44.702;11.030;2022-07-30T06:29:18;101237.06;;;22.31;100.00
55077;BME280;40971;44.702;11.030;2022-07-30T06:31:43;101241.31;;;22.24;100.00
55077;BME280;40971;44.702;11.030;2022-07-30T06:34:09;101228.31;;;22.21;100.00
55077;BME280;40971;44.702;11.030;2022-07-30T06:36:34;101229.53;;;22.27;100.00
55077;BME280;40971;44.702;11.030;2022-07-30T06:39:00;101235.69;;;22.37;100.00
55077;BME280;40971;44.702;11.030;2022-07-30T06:41:26;101236.94;;;22.60;100.00
55077;BME280;40971;44.702;11.030;2022-07-30T06:43:51;101229.69;;;22.80;100.00
55077;BME280;40971;44.702;11.030;2022-07-30T06:46:16;101228.31;;;23.03;100.00
55077;BME280;40971;44.702;11.030;2022-07-30T06:48:42;101218.66;;;23.20;100.00
55077;BME280;40971;44.702;11.030;2022-07-30T06:51:07;101248.44;;;23.69;100.00
55077;BME280;40971;44.702;11.030;2022-07-30T06:53:33;101247.44;;;23.52;100.00
55077;BME280;40971;44.702;11.030;2022-07-30T06:55:58;101241.41;;;23.32;100.00
55077;BME280;40971;44.702;11.030;2022-07-30T06:58:26;101256.78;;;23.56;100.00
55077;BME280;40971;44.702;11.030;2022-07-30T07:00:51;101240.66;;;23.40;100.00
55077;BME280;40971;44.702;11.030;2022-07-30T07:03:17;101221.53;;;23.45;100.00
55077;BME280;40971;44.702;11.030;2022-07-30T07:05:46;101261.56;;;23.88;100.00
55077;BME280;40971;44.702;11.030;2022-07-30T07:08:11;101223.88;;;23.65;100.00
55077;BME280;40971;44.702;11.030;2022-07-30T07:10:37;101242.81;;;23.80;100.00
55077;BME280;40971;44.702;11.030;2022-07-30T07:13:02;101267.69;;;24.07;100.00
55077;BME280;40971;44.702;11.030;2022-07-30T07:15:28;101264.50;;;24.63;98.47
55077;BME280;40971;44.702;11.030;2022-07-30T07:17:53;101238.47;;;24.65;95.98
55077;BME280;40971;44.702;11.030;2022-07-30T07:20:19;101259.00;;;24.65;93.83
55077;BME280;40971;44.702;11.030;2022-07-30T07:22:44;101262.88;;;24.70;96.02
55077;BME280;40971;44.702;11.030;2022-07-30T07:25:10;101245.53;;;24.82;94.70
55077;BME280;40971;44.702;11.030;2022-07-30T07:27:36;101259.84;;;25.15;92.32
55077;BME280;40971;44.702;11.030;2022-07-30T07:30:03;101259.69;;;25.25;90.22
55077;BME280;40971;44.702;11.030;2022-07-30T07:32:43;101257.38;;;25.38;89.02
55077;BME280;40971;44.702;11.030;2022-07-30T07:35:08;101260.56;;;25.58;89.41
55077;BME280;40971;44.702;11.030;2022-07-30T07:37:34;101218.75;;;25.33;89.02
55077;BME280;40971;44.702;11.030;2022-07-30T07:39:59;101254.88;;;25.53;87.45
55077;BME280;40971;44.702;11.030;2022-07-30T07:42:25;101253.88;;;25.62;88.64
55077;BME280;40971;44.702;11.030;2022-07-30T07:44:50;101254.56;;;25.72;87.53
55077;BME280;40971;44.702;11.030;2022-07-30T07:47:15;101253.06;;;25.70;86.13
55077;BME280;40971;44.702;11.030;2022-07-30T07:49:41;101248.47;;;26.03;86.10
55077;BME280;40971;44.702;11.030;2022-07-30T07:52:06;101226.34;;;26.25;83.19
55077;BME280;40971;44.702;11.030;2022-07-30T07:54:32;101252.13;;;26.18;83.95
55077;BME280;40971;44.702;11.030;2022-07-30T07:56:58;101264.50;;;26.35;85.83
55077;BME280;40971;44.702;11.030;2022-07-30T07:59:23;101212.00;;;26.10;81.20
55077;BME280;40971;44.702;11.030;2022-07-30T08:01:49;101258.25;;;25.88;81.51
55077;BME280;40971;44.702;11.030;2022-07-30T08:04:15;101258.69;;;26.07;81.62
55077;BME280;40971;44.702;11.030;2022-07-30T08:06:41;101261.28;;;26.32;78.77
55077;BME280;40971;44.702;11.030;2022-07-30T08:09:06;101261.13;;;26.33;79.74
55077;BME280;40971;44.702;11.030;2022-07-30T08:11:32;101189.41;;;26.13;78.96
55077;BME280;40971;44.702;11.030;2022-07-30T08:13:57;101267.81;;;26.46;80.29
55077;BME280;40971;44.702;11.030;2022-07-30T08:16:23;101262.53;;;26.68;79.13
55077;BME280;40971;44.702;11.030;2022-07-30T08:18:48;101229.50;;;26.76;78.69
55077;BME280;40971;44.702;11.030;2022-07-30T08:21:14;101257.03;;;26.93;77.82
55077;BME280;40971;44.702;11.030;2022-07-30T08:23:40;101217.97;;;26.67;79.14
55077;BME280;40971;44.702;11.030;2022-07-30T08:26:05;101261.75;;;27.22;75.71
55077;BME280;40971;44.702;11.030;2022-07-30T08:28:32;101267.88;;;27.53;74.35
55077;BME280;40971;44.702;11.030;2022-07-30T08:30:57;101264.63;;;27.66;70.75
55077;BME280;40971;44.702;11.030;2022-07-30T08:33:23;101258.00;;;27.92;69.21
55077;BME280;40971;44.702;11.030;2022-07-30T08:35:48;101271.78;;;27.74;69.93
55077;BME280;40971;44.702;11.030;2022-07-30T08:38:14;101264.84;;;27.79;72.08
55077;BME280;40971;44.702;11.030;2022-07-30T08:40:40;101263.66;;;27.97;70.21
55077;BME280;40971;44.702;11.030;2022-07-30T08:43:06;101272.81;;;28.02;68.64
55077;BME280;40971;44.702;11.030;2022-07-30T08:45:33;101272.16;;;27.63;69.46
55077;BME280;40971;44.702;11.030;2022-07-30T08:48:00;101257.75;;;27.64;69.32
55077;BME280;40971;44.702;11.030;2022-07-30T08:50:27;101243.19;;;27.81;68.61
55077;BME280;40971;44.702;11.030;2022-07-30T08:52:54;101270.75;;;28.27;67.92
55077;BME280;40971;44.702;11.030;2022-07-30T08:55:23;101263.47;;;27.98;68.19
55077;BME280;40971;44.702;11.030;2022-07-30T08:57:49;101267.41;;;28.25;65.94
55077;BME280;40971;44.702;11.030;2022-07-30T09:00:16;101262.06;;;28.40;64.50
55077;BME280;40971;44.702;11.030;2022-07-30T09:02:42;101264.47;;;28.86;63.23
55077;BME280;40971;44.702;11.030;2022-07-30T09:05:11;101262.03;;;29.05;65.49
55077;BME280;40971;44.702;11.030;2022-07-30T09:07:37;101269.66;;;29.02;64.53
55077;BME280;40971;44.702;11.030;2022-07-30T09:10:05;101223.09;;;29.01;61.66
55077;BME280;40971;44.702;11.030;2022-07-30T09:12:36;101261.16;;;29.41;60.64
55077;BME280;40971;44.702;11.030;2022-07-30T09:17:50;101259.66;;;29.39;61.59
55077;BME280;40971;44.702;11.030;2022-07-30T09:20:17;101252.91;;;29.64;60.26
55077;BME280;40971;44.702;11.030;2022-07-30T09:22:53;101254.47;;;29.37;60.49
55077;BME280;40971;44.702;11.030;2022-07-30T09:25:42;101249.94;;;28.95;60.65
55077;BME280;40971;44.702;11.030;2022-07-30T09:28:10;101230.22;;;29.09;60.08
55077;BME280;40971;44.702;11.030;2022-07-30T09:33:12;101233.00;;;28.21;66.00
55077;BME280;40971;44.702;11.030;2022-07-30T09:35:38;101270.50;;;28.88;65.52
55077;BME280;40971;44.702;11.030;2022-07-30T09:38:05;101262.41;;;29.60;60.23
55077;BME280;40971;44.702;11.030;2022-07-30T09:40:30;101256.22;;;29.66;58.01
55077;BME280;40971;44.702;11.030;2022-07-30T09:43:14;101227.00;;;29.63;57.52
55077;BME280;40971;44.702;11.030;2022-07-30T09:45:54;101259.28;;;30.12;58.22
55077;BME280;40971;44.702;11.030;2022-07-30T09:48:25;101264.94;;;29.96;58.17
55077;BME280;40971;44.702;11.030;2022-07-30T09:50:52;101264.91;;;30.17;59.88
55077;BME280;40971;44.702;11.030;2022-07-30T09:53:18;101252.28;;;29.90;59.36
55077;BME280;40971;44.702;11.030;2022-07-30T09:55:46;101264.44;;;28.64;61.77
55077;BME280;40971;44.702;11.030;2022-07-30T09:58:12;101259.13;;;28.71;60.95
55077;BME280;40971;44.702;11.030;2022-07-30T10:00:38;101232.38;;;28.99;61.04
55077;BME280;40971;44.702;11.030;2022-07-30T10:03:15;101218.56;;;29.45;60.40
55077;BME280;40971;44.702;11.030;2022-07-30T10:05:52;101251.81;;;30.08;56.69
55077;BME280;40971;44.702;11.030;2022-07-30T10:08:19;101243.06;;;30.40;57.54
55077;BME280;40971;44.702;11.030;2022-07-30T10:10:46;101259.84;;;30.83;56.40
55077;BME280;40971;44.702;11.030;2022-07-30T10:13:15;101239.03;;;30.64;54.70
55077;BME280;40971;44.702;11.030;2022-07-30T10:15:42;101209.44;;;30.30;57.13
55077;BME280;40971;44.702;11.030;2022-07-30T10:18:08;101231.50;;;30.53;55.88
55077;BME280;40971;44.702;11.030;2022-07-30T10:20:36;101217.59;;;30.49;55.41
55077;BME280;40971;44.702;11.030;2022-07-30T10:23:01;101233.56;;;30.51;54.21
55077;BME280;40971;44.702;11.030;2022-07-30T10:25:30;101229.00;;;30.45;52.87
55077;BME280;40971;44.702;11.030;2022-07-30T10:27:56;101214.88;;;30.43;53.46
55077;BME280;40971;44.702;11.030;2022-07-30T10:30:25;101220.22;;;30.77;51.80
55077;BME280;40971;44.702;11.030;2022-07-30T10:32:51;101219.81;;;30.80;52.27
55077;BME280;40971;44.702;11.030;2022-07-30T10:35:17;101215.69;;;31.04;52.29
55077;BME280;40971;44.702;11.030;2022-07-30T10:37:47;101212.44;;;31.29;50.41
55077;BME280;40971;44.702;11.030;2022-07-30T10:45:18;101219.28;;;31.84;49.59
55077;BME280;40971;44.702;11.030;2022-07-30T10:47:48;101219.03;;;32.12;49.02
55077;BME280;40971;44.702;11.030;2022-07-30T10:50:16;101221.34;;;31.89;48.50
55077;BME280;40971;44.702;11.030;2022-07-30T10:53:02;101223.88;;;31.77;49.31
55077;BME280;40971;44.702;11.030;2022-07-30T10:55:28;101176.50;;;31.75;49.05
55077;BME280;40971;44.702;11.030;2022-07-30T10:58:02;101226.88;;;32.20;49.61
55077;BME280;40971;44.702;11.030;2022-07-30T11:00:30;101207.13;;;32.26;45.55
55077;BME280;40971;44.702;11.030;2022-07-30T11:03:15;101223.75;;;32.23;45.91
55077;BME280;40971;44.702;11.030;2022-07-30T11:05:44;101226.88;;;32.20;47.07
55077;BME280;40971;44.702;11.030;2022-07-30T11:08:30;101157.38;;;31.69;47.75
55077;BME280;40971;44.702;11.030;2022-07-30T11:10:56;101210.09;;;32.05;46.85
55077;BME280;40971;44.702;11.030;2022-07-30T11:16:11;101202.66;;;31.87;46.63
55077;BME280;40971;44.702;11.030;2022-07-30T11:21:25;101208.69;;;31.83;45.06
55077;BME280;40971;44.702;11.030;2022-07-30T11:23:51;101195.78;;;31.98;44.31
55077;BME280;40971;44.702;11.030;2022-07-30T11:29:06;101174.75;;;32.13;46.10
55077;BME280;40971;44.702;11.030;2022-07-30T11:31:34;101195.91;;;32.23;45.83
55077;BME280;40971;44.702;11.030;2022-07-30T11:37:10;101214.56;;;32.44;44.44
55077;BME280;40971;44.702;11.030;2022-07-30T11:44:52;101200.34;;;32.62;43.55
55077;BME280;40971;44.702;11.030;2022-07-30T11:47:18;101198.53;;;32.49;43.05
55077;BME280;40971;44.702;11.030;2022-07-30T11:49:47;101194.84;;;32.24;42.38
55077;BME280;40971;44.702;11.030;2022-07-30T11:52:21;101205.06;;;32.28;44.52
55077;BME280;40971;44.702;11.030;2022-07-30T11:54:54;101199.66;;;32.28;43.13
55077;BME280;40971;44.702;11.030;2022-07-30T11:57:20;101190.78;;;32.59;42.00
55077;BME280;40971;44.702;11.030;2022-07-30T12:00:03;101171.44;;;32.63;42.30
55077;BME280;40971;44.702;11.030;2022-07-30T12:02:28;101174.28;;;33.06;41.71
55077;BME280;40971;44.702;11.030;2022-07-30T12:04:54;101174.63;;;33.41;41.60
55077;BME280;40971;44.702;11.030;2022-07-30T12:07:23;101186.81;;;33.75;40.34
55077;BME280;40971;44.702;11.030;2022-07-30T12:09:48;101179.41;;;33.89;42.24
55077;BME280;40971;44.702;11.030;2022-07-30T12:12:21;101172.97;;;33.40;42.64
55077;BME280;40971;44.702;11.030;2022-07-30T12:14:48;101172.88;;;33.28;39.07
55077;BME280;40971;44.702;11.030;2022-07-30T12:17:14;101145.38;;;33.25;39.91
55077;BME280;40971;44.702;11.030;2022-07-30T12:19:46;101164.44;;;33.43;40.34
55077;BME280;40971;44.702;11.030;2022-07-30T12:22:12;101177.19;;;33.61;39.83
55077;BME280;40971;44.702;11.030;2022-07-30T12:24:38;101183.78;;;33.46;40.14
55077;BME280;40971;44.702;11.030;2022-07-30T12:27:04;101170.38;;;33.27;39.75
55077;BME280;40971;44.702;11.030;2022-07-30T12:29:30;101119.94;;;33.32;37.35
55077;BME280;40971;44.702;11.030;2022-07-30T12:31:56;101160.50;;;33.82;36.25
55077;BME280;40971;44.702;11.030;2022-07-30T12:34:24;101169.31;;;33.53;39.54
55077;BME280;40971;44.702;11.030;2022-07-30T12:36:50;101142.38;;;33.14;40.66
55077;BME280;40971;44.702;11.030;2022-07-30T12:39:23;101158.16;;;33.42;40.29
55077;BME280;40971;44.702;11.030;2022-07-30T12:41:51;101156.63;;;33.53;39.96
55077;BME280;40971;44.702;11.030;2022-07-30T12:47:01;101151.69;;;33.87;37.90
55077;BME280;40971;44.702;11.030;2022-07-30T12:49:31;101163.53;;;33.49;38.35
55077;BME280;40971;44.702;11.030;2022-07-30T12:51:57;101129.06;;;33.56;36.73
55077;BME280;40971;44.702;11.030;2022-07-30T12:54:23;101159.13;;;33.73;37.54
55077;BME280;40971;44.702;11.030;2022-07-30T12:57:00;101162.41;;;34.00;35.51
55077;BME280;40971;44.702;11.030;2022-07-30T12:59:26;101166.09;;;33.87;34.26
55077;BME280;40971;44.702;11.030;2022-07-30T13:01:52;101146.31;;;33.43;35.27
55077;BME280;40971;44.702;11.030;2022-07-30T13:04:18;101156.72;;;34.20;33.70
55077;BME280;40971;44.702;11.030;2022-07-30T13:07:02;101153.38;;;34.54;34.52
55077;BME280;40971;44.702;11.030;2022-07-30T13:09:27;101132.59;;;34.48;34.02
55077;BME280;40971;44.702;11.030;2022-07-30T13:11:53;101113.19;;;34.63;35.81